createdAt,value
2023-02-08T00:00:33.791Z,39.75
2023-02-08T00:03:00.279Z,29.25
2023-02-08T00:05:26.780Z,33.05
2023-02-08T00:07:53.188Z,31.00
2023-02-08T00:10:19.648Z,42.30
2023-02-08T00:12:46.303Z,41.40
2023-02-08T00:15:12.748Z,41.63
2023-02-08T00:17:39.341Z,34.40
2023-02-08T00:20:07.054Z,32.97
2023-02-08T00:22:33.690Z,40.30
2023-02-08T00:25:00.101Z,32.88
2023-02-08T00:27:26.629Z,46.00
2023-02-08T00:29:53.092Z,39.03
2023-02-08T00:32:19.524Z,36.80
2023-02-08T00:34:45.928Z,36.53
2023-02-08T00:37:12.376Z,37.13
2023-02-08T00:39:38.796Z,43.72
2023-02-08T00:42:08.225Z,37.80
2023-02-08T00:44:34.637Z,33.88
2023-02-08T00:47:01.028Z,33.63
2023-02-08T00:49:27.408Z,45.70
2023-02-08T00:51:53.805Z,38.10
2023-02-08T00:54:21.079Z,31.23
2023-02-08T00:56:47.760Z,33.38
2023-02-08T00:59:16.773Z,40.28
2023-02-08T01:01:43.268Z,44.00
2023-02-08T01:04:09.708Z,44.70
2023-02-08T01:06:36.128Z,40.72
2023-02-08T01:09:02.533Z,40.45
2023-02-08T01:11:29.023Z,52.00
2023-02-08T01:13:57.455Z,40.40
2023-02-08T01:16:25.256Z,42.38
2023-02-08T01:18:54.765Z,41.70
2023-02-08T01:21:22.390Z,46.92
2023-02-08T01:23:49.386Z,55.75
2023-02-08T01:26:16.642Z,48.55
2023-02-08T01:28:44.011Z,64.13
2023-02-08T01:31:12.994Z,35.25
2023-02-08T01:33:42.528Z,46.53
2023-02-08T01:36:09.268Z,41.30
2023-02-08T01:38:36.495Z,32.22
2023-02-08T01:41:03.843Z,50.88
2023-02-08T01:43:53.246Z,41.25
2023-02-08T01:46:19.668Z,50.38
2023-02-08T01:48:46.457Z,36.65
2023-02-08T01:51:15.269Z,49.67
2023-02-08T01:53:45.049Z,53.67
2023-02-08T01:56:17.752Z,61.08
2023-02-08T01:58:49.052Z,46.50
2023-02-08T02:01:16.079Z,40.08
2023-02-08T02:03:44.603Z,47.20
2023-02-08T02:06:17.395Z,39.88
2023-02-08T02:09:07.233Z,55.97
2023-02-08T02:11:33.599Z,44.15
2023-02-08T02:14:00.728Z,50.72
2023-02-08T02:16:27.131Z,50.92
2023-02-08T02:18:53.654Z,50.65
2023-02-08T02:21:43.042Z,50.75
2023-02-08T02:24:44.863Z,53.00
2023-02-08T02:27:20.339Z,53.42
2023-02-08T02:29:52.784Z,63.40
2023-02-08T02:32:40.743Z,59.05
2023-02-08T02:35:10.310Z,36.45
2023-02-08T02:37:44.351Z,67.30
2023-02-08T02:40:16.693Z,47.03
2023-02-08T02:43:11.821Z,45.13
2023-02-08T02:45:49.806Z,48.55
2023-02-08T02:48:25.727Z,56.88
2023-02-08T02:50:55.335Z,51.88
2023-02-08T02:53:40.528Z,44.33
2023-02-08T02:56:10.115Z,45.55
2023-02-08T02:58:38.512Z,52.70
2023-02-08T03:01:05.053Z,44.30
2023-02-08T03:03:33.255Z,62.92
2023-02-08T03:06:22.743Z,59.35
2023-02-08T03:08:55.442Z,43.85
2023-02-08T03:11:32.695Z,51.83
2023-02-08T03:14:14.471Z,57.58
2023-02-08T03:17:03.931Z,53.10
2023-02-08T03:19:33.107Z,52.25
2023-02-08T03:22:06.867Z,63.42
2023-02-08T03:24:38.341Z,55.28
2023-02-08T03:27:08.339Z,51.45
2023-02-08T03:29:45.007Z,54.08
2023-02-08T03:32:19.336Z,52.28
2023-02-08T03:34:51.417Z,46.72
2023-02-08T03:37:26.457Z,54.65
2023-02-08T03:39:56.256Z,53.05
2023-02-08T03:42:25.135Z,38.83
2023-02-08T03:44:53.331Z,58.72
2023-02-08T03:47:22.175Z,56.20
2023-02-08T03:49:52.040Z,51.17
2023-02-08T03:52:18.947Z,53.83
2023-02-08T03:54:49.530Z,46.85
2023-02-08T03:57:22.853Z,48.85
2023-02-08T03:59:53.964Z,49.08
2023-02-08T04:02:21.810Z,45.90
2023-02-08T04:04:49.853Z,48.22
2023-02-08T04:07:17.426Z,46.38
2023-02-08T04:09:46.004Z,45.67
2023-02-08T04:12:12.614Z,37.58
2023-02-08T04:14:39.005Z,49.72
2023-02-08T04:17:05.422Z,44.92
2023-02-08T04:19:31.890Z,50.78
2023-02-08T04:21:58.302Z,35.03
2023-02-08T04:24:24.747Z,40.45
2023-02-08T04:26:51.181Z,49.35
2023-02-08T04:29:17.576Z,42.42
2023-02-08T04:31:44.073Z,41.25
2023-02-08T04:34:10.542Z,44.05
2023-02-08T04:36:37.052Z,33.90
2023-02-08T04:39:03.516Z,37.03
2023-02-08T04:41:29.961Z,47.92
2023-02-08T04:43:56.340Z,45.83
2023-02-08T04:46:22.825Z,45.10
2023-02-08T04:48:49.681Z,40.72
2023-02-08T04:51:18.174Z,47.58
2023-02-08T04:53:44.671Z,49.05
2023-02-08T04:56:11.041Z,47.40
2023-02-08T04:58:37.577Z,48.25
2023-02-08T05:01:07.541Z,45.00
2023-02-08T05:03:34.129Z,36.88
2023-02-08T05:06:00.922Z,44.65
2023-02-08T05:08:29.339Z,48.00
2023-02-08T05:10:55.754Z,39.13
2023-02-08T05:13:22.141Z,48.92
2023-02-08T05:15:48.606Z,44.20
2023-02-08T05:18:15.001Z,42.75
2023-02-08T05:20:41.655Z,44.80
2023-02-08T05:23:08.326Z,49.20
2023-02-08T05:25:34.728Z,37.30
2023-02-08T05:28:01.266Z,36.67
2023-02-08T05:30:27.674Z,59.10
2023-02-08T05:32:54.063Z,51.38
2023-02-08T05:35:20.463Z,50.55
2023-02-08T05:37:46.836Z,53.33
2023-02-08T05:40:13.333Z,41.42
2023-02-08T05:42:39.778Z,57.67
2023-02-08T05:45:06.349Z,54.60
2023-02-08T05:47:32.757Z,58.47
2023-02-08T05:50:01.546Z,57.15
2023-02-08T05:52:28.034Z,54.15
2023-02-08T05:54:54.432Z,60.00
2023-02-08T05:57:20.829Z,52.08
2023-02-08T05:59:47.211Z,62.47
2023-02-08T06:02:14.195Z,59.25
2023-02-08T06:04:40.618Z,56.35
2023-02-08T06:07:06.981Z,54.92
2023-02-08T06:09:33.367Z,45.28
2023-02-08T06:11:59.794Z,52.63
2023-02-08T06:14:26.188Z,53.47
2023-02-08T06:16:52.727Z,48.72
2023-02-08T06:19:19.183Z,56.95
2023-02-08T06:21:45.627Z,61.10
2023-02-08T06:24:12.084Z,55.40
2023-02-08T06:26:38.546Z,50.47
2023-02-08T06:29:04.964Z,54.40
2023-02-08T06:31:31.444Z,58.25
2023-02-08T06:33:57.872Z,46.67
2023-02-08T06:36:24.462Z,62.47
2023-02-08T06:38:51.406Z,54.45
2023-02-08T06:41:17.980Z,49.97
2023-02-08T06:43:44.472Z,54.08
2023-02-08T06:46:11.066Z,60.53
2023-02-08T06:48:37.861Z,57.70
2023-02-08T06:51:04.350Z,59.03
2023-02-08T06:53:30.908Z,57.92
2023-02-08T06:55:57.364Z,62.83
2023-02-08T06:58:23.803Z,59.63
2023-02-08T07:00:50.429Z,58.03
2023-02-08T07:03:17.716Z,57.38
2023-02-08T07:05:58.735Z,51.13
2023-02-08T07:08:30.550Z,58.17
2023-02-08T07:10:56.926Z,55.80
2023-02-08T07:13:23.450Z,50.97
2023-02-08T07:15:49.841Z,55.17
2023-02-08T07:18:16.344Z,54.15
2023-02-08T07:20:42.704Z,52.15
2023-02-08T07:23:09.239Z,51.90
2023-02-08T07:25:35.696Z,62.85
2023-02-08T07:28:02.786Z,52.88
2023-02-08T07:30:29.404Z,59.72
2023-02-08T07:32:55.860Z,55.95
2023-02-08T07:35:22.363Z,66.80
2023-02-08T07:37:48.785Z,65.60
2023-02-08T07:40:15.312Z,55.10
2023-02-08T07:42:41.753Z,43.97
2023-02-08T07:45:08.323Z,64.03
2023-02-08T07:47:34.751Z,63.17
2023-02-08T07:50:01.154Z,70.68
2023-02-08T07:52:27.532Z,71.93
2023-02-08T07:54:53.945Z,53.50
2023-02-08T07:57:22.069Z,56.47
2023-02-08T07:59:48.653Z,53.95
2023-02-08T08:02:15.481Z,72.35
2023-02-08T08:04:42.051Z,75.60
2023-02-08T08:07:08.434Z,66.95
2023-02-08T08:09:34.836Z,64.72
2023-02-08T08:12:02.212Z,56.25
2023-02-08T08:14:28.626Z,68.28
2023-02-08T08:16:55.033Z,69.60
2023-02-08T08:19:21.467Z,68.63
2023-02-08T08:21:47.916Z,65.78
2023-02-08T08:24:14.315Z,58.95
2023-02-08T08:26:40.739Z,61.75
2023-02-08T08:29:07.180Z,64.15
2023-02-08T08:31:33.673Z,67.05
2023-02-08T08:34:00.258Z,63.33
2023-02-08T08:36:26.751Z,52.17
2023-02-08T08:38:53.302Z,55.20
2023-02-08T08:41:22.204Z,49.95
2023-02-08T08:43:48.852Z,58.30
2023-02-08T08:46:16.863Z,57.47
2023-02-08T08:48:43.628Z,68.20
2023-02-08T08:51:10.109Z,56.45
2023-02-08T08:53:37.159Z,56.65
2023-02-08T08:56:04.072Z,66.18
2023-02-08T08:58:30.742Z,58.78
2023-02-08T09:00:58.824Z,66.13
2023-02-08T09:03:25.458Z,54.33
2023-02-08T09:05:51.884Z,71.07
2023-02-08T09:08:18.473Z,59.50
2023-02-08T09:10:44.980Z,57.85
2023-02-08T09:13:11.852Z,55.67
2023-02-08T09:15:39.131Z,55.83
2023-02-08T09:18:05.562Z,72.32
2023-02-08T09:20:32.052Z,66.28
2023-02-08T09:22:58.924Z,61.40
2023-02-08T09:25:25.360Z,67.15
2023-02-08T09:27:51.809Z,71.10
2023-02-08T09:30:18.318Z,55.40
2023-02-08T09:32:45.407Z,57.40
2023-02-08T09:35:13.397Z,69.30
2023-02-08T09:37:39.844Z,58.45
2023-02-08T09:40:06.498Z,71.45
2023-02-08T09:42:38.020Z,63.50
2023-02-08T09:45:27.710Z,61.22
2023-02-08T09:48:16.528Z,64.95
2023-02-08T09:50:45.619Z,75.60
2023-02-08T09:53:11.992Z,62.65
2023-02-08T09:55:41.319Z,70.15
2023-02-08T09:58:17.386Z,63.80
2023-02-08T10:00:45.782Z,75.10
2023-02-08T10:03:31.065Z,72.40
2023-02-08T10:05:59.582Z,60.88
2023-02-08T10:08:34.905Z,71.10
2023-02-08T10:11:07.827Z,71.28
2023-02-08T10:13:53.591Z,74.55
2023-02-08T10:16:20.055Z,68.15
2023-02-08T10:19:05.294Z,65.97
2023-02-08T10:21:50.508Z,73.00
2023-02-08T10:24:28.503Z,63.05
2023-02-08T10:26:54.866Z,59.00
2023-02-08T10:29:42.783Z,72.63
2023-02-08T10:32:18.843Z,68.97
2023-02-08T10:34:52.563Z,69.95
2023-02-08T10:37:27.712Z,68.75
2023-02-08T10:39:54.655Z,75.95
2023-02-08T10:42:22.618Z,64.57
2023-02-08T10:45:24.178Z,60.80
2023-02-08T10:48:00.030Z,78.70
2023-02-08T10:50:35.611Z,60.50
2023-02-08T10:53:02.689Z,59.53
2023-02-08T10:55:30.128Z,67.75
2023-02-08T10:58:00.815Z,74.15
2023-02-08T11:00:29.000Z,61.63
2023-02-08T11:02:57.542Z,64.05
2023-02-08T11:05:25.245Z,73.50
2023-02-08T11:08:07.149Z,50.03
2023-02-08T11:10:34.254Z,64.82
2023-02-08T11:13:03.789Z,53.03
2023-02-08T11:15:34.024Z,49.72
2023-02-08T11:18:03.803Z,55.25
2023-02-08T11:20:40.067Z,67.65
2023-02-08T11:23:18.828Z,51.97
2023-02-08T11:25:45.383Z,60.55
2023-02-08T11:28:30.871Z,57.15
2023-02-08T11:31:02.195Z,51.65
2023-02-08T11:33:29.745Z,50.25
2023-02-08T11:36:01.373Z,51.22
2023-02-08T11:38:28.349Z,52.47
2023-02-08T11:40:56.721Z,54.13
2023-02-08T11:43:24.981Z,50.58
2023-02-08T11:45:51.769Z,54.45
2023-02-08T11:48:30.259Z,56.88
2023-02-08T11:50:58.890Z,58.40
2023-02-08T11:53:29.012Z,46.65
2023-02-08T11:56:03.179Z,59.20
2023-02-08T11:58:30.773Z,57.08
2023-02-08T12:00:58.511Z,60.53
2023-02-08T12:03:38.404Z,40.28
2023-02-08T12:06:04.856Z,57.08
2023-02-08T12:08:37.323Z,42.20
2023-02-08T12:11:26.163Z,45.67
2023-02-08T12:13:57.487Z,57.08
2023-02-08T12:16:34.221Z,49.10
2023-02-08T12:19:01.243Z,52.75
2023-02-08T12:21:33.526Z,53.13
2023-02-08T12:24:06.062Z,56.95
2023-02-08T12:26:37.400Z,48.17
2023-02-08T12:29:03.848Z,47.22
2023-02-08T12:31:33.344Z,40.83
2023-02-08T12:34:05.836Z,45.75
2023-02-08T12:36:38.320Z,35.05
2023-02-08T12:39:44.086Z,39.28
2023-02-08T12:42:21.594Z,40.55
2023-02-08T12:44:48.562Z,42.58
2023-02-08T12:47:23.991Z,38.20
2023-02-08T12:49:50.362Z,36.50
2023-02-08T12:52:19.468Z,36.92
2023-02-08T12:54:52.577Z,48.05
2023-02-08T12:57:21.157Z,38.90
2023-02-08T12:59:49.629Z,42.30
2023-02-08T13:02:23.263Z,41.70
2023-02-08T13:04:52.132Z,37.00
2023-02-08T13:07:21.050Z,37.75
2023-02-08T13:09:54.597Z,43.70
2023-02-08T13:12:25.770Z,43.08
2023-02-08T13:14:52.193Z,36.75
2023-02-08T13:17:21.278Z,33.72
2023-02-08T13:20:05.081Z,26.65
2023-02-08T13:22:34.554Z,32.38
2023-02-08T13:25:07.621Z,38.22
2023-02-08T13:27:34.572Z,41.60
2023-02-08T13:30:01.501Z,34.20
2023-02-08T13:32:43.556Z,38.10
2023-02-08T13:35:15.499Z,38.00
2023-02-08T13:37:42.118Z,34.33
2023-02-08T13:40:17.490Z,44.40
2023-02-08T13:42:50.729Z,41.15
2023-02-08T13:45:37.588Z,34.33
2023-02-08T13:48:05.419Z,37.70
2023-02-08T13:50:34.866Z,34.97
2023-02-08T13:53:02.011Z,42.47
2023-02-08T13:55:36.218Z,44.85
2023-02-08T13:58:13.493Z,40.15
2023-02-08T14:00:55.154Z,42.60
2023-02-08T14:03:30.074Z,43.55
2023-02-08T14:05:59.191Z,45.60
2023-02-08T14:08:35.183Z,39.03
2023-02-08T14:11:20.468Z,37.85
2023-02-08T14:13:55.550Z,37.13
2023-02-08T14:16:21.926Z,39.65
2023-02-08T14:18:55.536Z,36.72
2023-02-08T14:21:43.101Z,52.63
2023-02-08T14:24:34.209Z,32.15
2023-02-08T14:27:08.581Z,39.35
2023-02-08T14:29:36.075Z,37.60
2023-02-08T14:32:02.590Z,39.83
2023-02-08T14:34:34.755Z,39.22
2023-02-08T14:37:03.985Z,41.78
2023-02-08T14:39:33.499Z,44.47
2023-02-08T14:42:03.851Z,39.78
2023-02-08T14:44:39.268Z,37.50
2023-02-08T14:47:35.835Z,38.40
2023-02-08T14:50:19.742Z,40.72
2023-02-08T14:52:56.922Z,43.65
2023-02-08T14:55:27.571Z,43.88
2023-02-08T14:58:01.016Z,43.28
2023-02-08T15:00:30.092Z,41.63
2023-02-08T15:02:58.856Z,45.05
2023-02-08T15:05:27.772Z,32.40
2023-02-08T15:07:55.887Z,41.03
2023-02-08T15:10:23.295Z,33.88
2023-02-08T15:12:51.434Z,35.72
2023-02-08T15:15:26.209Z,41.15
2023-02-08T15:17:53.501Z,37.70
2023-02-08T15:20:24.724Z,38.15
2023-02-08T15:23:02.207Z,38.20
2023-02-08T15:25:30.266Z,35.60
2023-02-08T15:28:04.026Z,44.03
2023-02-08T15:30:38.051Z,34.75
2023-02-08T15:33:09.196Z,36.38
2023-02-08T15:35:36.004Z,39.78
2023-02-08T15:38:05.473Z,37.80
2023-02-08T15:40:33.059Z,32.63
2023-02-08T15:43:06.140Z,37.40
2023-02-08T15:45:32.729Z,29.95
2023-02-08T15:47:59.967Z,35.03
2023-02-08T15:50:27.352Z,40.58
2023-02-08T15:53:02.132Z,45.15
2023-02-08T15:55:32.235Z,48.33
2023-02-08T15:58:28.755Z,44.65
2023-02-08T16:00:57.162Z,32.63
2023-02-08T16:03:24.227Z,37.13
2023-02-08T16:05:56.443Z,40.28
2023-02-08T16:08:26.651Z,43.13
2023-02-08T16:10:59.287Z,49.13
2023-02-08T16:13:27.509Z,44.63
2023-02-08T16:16:17.328Z,41.92
2023-02-08T16:18:50.168Z,45.35
2023-02-08T16:21:21.667Z,47.58
2023-02-08T16:23:49.548Z,52.70
2023-02-08T16:26:21.041Z,54.53
2023-02-08T16:29:01.243Z,49.50
2023-02-08T16:31:30.158Z,54.80
2023-02-08T16:33:58.138Z,57.47
2023-02-08T16:36:25.852Z,55.78
2023-02-08T16:39:10.882Z,59.47
2023-02-08T16:42:15.209Z,56.13
2023-02-08T16:44:56.785Z,53.60
2023-02-08T16:47:27.966Z,55.08
2023-02-08T16:49:54.402Z,55.85
2023-02-08T16:52:20.800Z,53.17
2023-02-08T16:54:47.375Z,50.80
2023-02-08T16:57:13.802Z,60.45
2023-02-08T16:59:40.222Z,64.05
2023-02-08T17:02:10.583Z,58.88
2023-02-08T17:04:37.078Z,61.22
2023-02-08T17:07:03.684Z,57.17
2023-02-08T17:09:30.112Z,62.83
2023-02-08T17:11:56.520Z,55.83
2023-02-08T17:14:22.921Z,57.90
2023-02-08T17:16:49.365Z,57.90
2023-02-08T17:19:17.081Z,59.40
2023-02-08T17:21:43.647Z,62.92
2023-02-08T17:24:10.164Z,60.60
2023-02-08T17:26:42.412Z,58.30
2023-02-08T17:29:10.743Z,53.25
2023-02-08T17:31:37.302Z,64.65
2023-02-08T17:34:06.616Z,62.08
2023-02-08T17:36:34.185Z,61.67
2023-02-08T17:39:00.726Z,59.95
2023-02-08T17:41:27.285Z,63.33
2023-02-08T17:43:54.614Z,64.03
2023-02-08T17:46:22.732Z,53.08
2023-02-08T17:48:49.214Z,55.50
2023-02-08T17:51:17.044Z,56.85
2023-02-08T17:53:43.864Z,59.25
2023-02-08T17:56:11.218Z,60.17
2023-02-08T17:58:37.946Z,58.83
2023-02-08T18:01:04.884Z,60.58
2023-02-08T18:03:31.569Z,59.60
2023-02-08T18:05:58.682Z,53.03
2023-02-08T18:08:25.180Z,55.20
2023-02-08T18:10:51.710Z,55.25
2023-02-08T18:13:18.309Z,52.20
2023-02-08T18:15:45.125Z,49.00
2023-02-08T18:18:11.708Z,53.28
2023-02-08T18:20:42.809Z,55.75
2023-02-08T18:23:09.211Z,50.50
2023-02-08T18:25:35.997Z,51.55
2023-02-08T18:28:02.485Z,54.95
2023-02-08T18:30:28.958Z,58.38
2023-02-08T18:32:55.439Z,54.67
2023-02-08T18:35:22.604Z,53.22
2023-02-08T18:37:51.522Z,42.55
2023-02-08T18:40:18.263Z,61.15
2023-02-08T18:42:44.736Z,49.25
2023-02-08T18:45:11.289Z,49.10
2023-02-08T18:47:39.291Z,59.20
2023-02-08T18:50:06.351Z,41.10
2023-02-08T18:52:32.791Z,52.28
2023-02-08T18:54:59.227Z,49.03
2023-02-08T18:57:25.713Z,50.22
2023-02-08T18:59:53.978Z,46.20
2023-02-08T19:02:21.822Z,53.97
2023-02-08T19:04:48.368Z,46.63
2023-02-08T19:07:14.815Z,41.72
2023-02-08T19:09:41.675Z,46.55
2023-02-08T19:12:09.155Z,42.42
2023-02-08T19:14:35.564Z,44.83
2023-02-08T19:17:02.562Z,43.13
2023-02-08T19:19:29.431Z,44.42
2023-02-08T19:21:55.918Z,44.05
2023-02-08T19:24:22.398Z,37.40
2023-02-08T19:26:48.942Z,46.47
2023-02-08T19:29:16.922Z,40.85
2023-02-08T19:31:43.867Z,39.00
2023-02-08T19:34:10.687Z,39.80
2023-02-08T19:36:38.851Z,35.85
2023-02-08T19:39:06.444Z,39.10
2023-02-08T19:41:34.947Z,35.00
2023-02-08T19:44:04.667Z,39.15
2023-02-08T19:46:33.011Z,36.15
2023-02-08T19:49:00.696Z,37.10
2023-02-08T19:51:28.095Z,34.95
2023-02-08T19:53:56.883Z,44.28
2023-02-08T19:56:23.406Z,31.33
2023-02-08T19:58:49.823Z,37.55
2023-02-08T20:01:17.494Z,36.88
2023-02-08T20:03:44.260Z,36.33
2023-02-08T20:06:14.683Z,32.67
2023-02-08T20:08:41.201Z,31.50
2023-02-08T20:11:15.078Z,34.80
2023-02-08T20:13:41.479Z,31.33
2023-02-08T20:16:07.973Z,34.13
2023-02-08T20:18:34.407Z,29.95
2023-02-08T20:21:02.051Z,30.90
2023-02-08T20:23:28.676Z,27.73
2023-02-08T20:26:05.469Z,30.95
2023-02-08T20:28:31.892Z,30.23
2023-02-08T20:31:00.086Z,29.85
2023-02-08T20:33:26.539Z,27.42
2023-02-08T20:35:52.922Z,32.38
2023-02-08T20:38:19.345Z,32.00
2023-02-08T20:40:45.972Z,29.27
2023-02-08T20:43:12.370Z,31.38
2023-02-08T20:45:40.066Z,31.90
2023-02-08T20:48:06.624Z,40.85
2023-02-08T20:50:34.073Z,28.88
2023-02-08T20:53:00.616Z,31.38
2023-02-08T20:55:27.052Z,31.90
2023-02-08T20:57:53.432Z,32.67
2023-02-08T21:00:19.978Z,29.17
2023-02-08T21:02:46.518Z,35.10
2023-02-08T21:05:13.026Z,31.20
2023-02-08T21:07:40.381Z,34.28
2023-02-08T21:10:07.156Z,32.17
2023-02-08T21:12:33.586Z,30.85
2023-02-08T21:14:59.981Z,38.00
2023-02-08T21:17:26.442Z,31.58
2023-02-08T21:19:52.888Z,37.80
2023-02-08T21:22:19.324Z,36.55
2023-02-08T21:24:45.777Z,33.65
2023-02-08T21:27:12.959Z,36.17
2023-02-08T21:29:39.356Z,34.28
2023-02-08T21:32:05.895Z,31.20
2023-02-08T21:34:32.331Z,26.40
2023-02-08T21:36:58.694Z,34.38
2023-02-08T21:39:25.189Z,39.33
2023-02-08T21:41:51.910Z,34.17
2023-02-08T21:44:18.513Z,32.95
2023-02-08T21:46:44.966Z,37.88
2023-02-08T21:49:29.804Z,31.20
2023-02-08T21:52:14.690Z,34.22
2023-02-08T21:54:46.824Z,33.30
2023-02-08T21:57:23.701Z,35.63
2023-02-08T21:59:51.262Z,31.23
2023-02-08T22:02:21.978Z,34.38
2023-02-08T22:07:41.632Z,28.35
2023-02-08T22:10:09.025Z,32.92
2023-02-08T22:12:35.415Z,27.95
2023-02-08T22:15:01.851Z,30.90
2023-02-08T22:17:28.235Z,26.98
2023-02-08T22:19:54.632Z,26.55
2023-02-08T22:22:21.041Z,24.17
2023-02-08T22:24:47.476Z,32.35
2023-02-08T22:27:13.880Z,23.60
2023-02-08T22:29:40.285Z,27.17
2023-02-08T22:32:08.204Z,23.92
2023-02-08T22:34:34.611Z,25.90
2023-02-08T22:37:03.781Z,26.50
2023-02-08T22:39:31.096Z,30.00
2023-02-08T22:41:58.056Z,20.60
2023-02-08T22:44:24.506Z,28.92
2023-02-08T22:46:50.942Z,28.70
2023-02-08T22:49:17.415Z,29.17
2023-02-08T22:51:43.873Z,27.75
2023-02-08T22:54:10.230Z,26.15
2023-02-08T22:56:36.627Z,25.55
2023-02-08T22:59:03.009Z,25.15
2023-02-08T23:01:29.435Z,27.60
2023-02-08T23:03:55.841Z,26.75
2023-02-08T23:06:22.225Z,25.42
2023-02-08T23:08:48.832Z,28.08
2023-02-08T23:11:15.423Z,28.55
2023-02-08T23:13:41.829Z,32.05
2023-02-08T23:16:11.209Z,22.92
2023-02-08T23:18:37.694Z,28.13
2023-02-08T23:21:07.812Z,25.75
2023-02-08T23:23:34.221Z,23.63
2023-02-08T23:26:03.438Z,28.52
2023-02-08T23:28:33.369Z,37.75
2023-02-08T23:30:59.923Z,27.65
2023-02-08T23:33:26.401Z,23.48
2023-02-08T23:35:52.846Z,31.55
2023-02-08T23:38:19.228Z,32.33
2023-02-08T23:40:45.871Z,32.45
2023-02-08T23:43:12.435Z,29.15
2023-02-08T23:45:38.822Z,34.03
2023-02-08T23:48:05.317Z,24.48
2023-02-08T23:50:31.756Z,30.25
2023-02-08T23:52:58.237Z,32.33
2023-02-08T23:55:24.878Z,29.02
2023-02-08T23:57:51.272Z,29.17
